Grande-Entree, Canada
Current Conditions -  °F | °C
As of 6:00 AM on Monday 22 Dec 2014 (Local Time) from CYGR Reporting Station
Overcast Overcast  
Wind Chill: 17°   Ceiling: 1600
Heat Index: 27°   Visibility: 15mi
Dew Point: 21°   Wind: 10mph
Humidity: 80%   Direction: 330°NNW
Pressure: 30.44"   Gusts: NA
Location:  47.55°N, 61.57°W
Report Text: CYGR 221000Z 33009KT 15SM OVC016 M03/M06 A3044 RMK SC8 SLP310
Loading
Personal Weather Stations






























Interactive Weather Map New forecast layout! Learn more

10-Day Weather Forecast

Advertisements
Track Severe Weather on mobile